createdAt,value
2023-11-23T00:00:13.356Z,2.80
2023-11-23T00:02:41.031Z,2.50
2023-11-23T00:05:09.007Z,2.50
2023-11-23T00:07:36.322Z,2.30
2023-11-23T00:10:04.219Z,2.37
2023-11-23T00:12:31.348Z,2.90
2023-11-23T00:15:01.069Z,2.43
2023-11-23T00:17:28.713Z,2.60
2023-11-23T00:19:55.914Z,2.57
2023-11-23T00:22:23.021Z,2.40
2023-11-23T00:24:50.802Z,2.70
2023-11-23T00:27:17.921Z,2.40
2023-11-23T00:29:46.175Z,2.43
2023-11-23T00:32:13.546Z,2.10
2023-11-23T00:34:40.738Z,2.13
2023-11-23T00:37:08.357Z,2.27
2023-11-23T00:39:35.822Z,1.73
2023-11-23T00:42:03.165Z,2.00
2023-11-23T00:44:30.308Z,1.90
2023-11-23T00:46:57.433Z,1.87
2023-11-23T00:49:24.648Z,1.90
2023-11-23T00:51:51.702Z,1.77
2023-11-23T00:54:18.868Z,1.60
2023-11-23T00:56:46.174Z,1.60
2023-11-23T00:59:13.317Z,1.40
2023-11-23T01:01:40.697Z,1.60
2023-11-23T01:04:09.068Z,1.60
2023-11-23T01:06:36.277Z,1.47
2023-11-23T01:09:03.473Z,1.60
2023-11-23T01:11:30.657Z,1.27
2023-11-23T01:13:57.832Z,1.60
2023-11-23T01:16:26.137Z,1.10
2023-11-23T01:18:53.272Z,1.33
2023-11-23T01:21:20.361Z,1.40
2023-11-23T01:23:47.524Z,1.27
2023-11-23T01:26:14.687Z,1.30
2023-11-23T01:28:41.800Z,1.10
2023-11-23T01:31:10.400Z,1.30
2023-11-23T01:33:37.592Z,1.00
2023-11-23T01:36:05.007Z,1.20
2023-11-23T01:38:32.134Z,1.30
2023-11-23T01:40:59.217Z,1.20
2023-11-23T01:43:26.428Z,1.20
2023-11-23T01:45:53.545Z,1.20
2023-11-23T01:48:21.186Z,1.30
2023-11-23T01:50:48.439Z,1.10
2023-11-23T01:53:15.592Z,1.50
2023-11-23T01:55:42.805Z,1.50
2023-11-23T01:58:10.473Z,1.40
2023-11-23T02:00:38.307Z,1.40
2023-11-23T02:03:05.503Z,1.70
2023-11-23T02:05:32.655Z,1.60
2023-11-23T02:07:59.729Z,1.70
2023-11-23T02:10:26.856Z,1.60
2023-11-23T02:12:54.000Z,1.57
2023-11-23T02:15:21.156Z,1.40
2023-11-23T02:17:48.753Z,1.40
2023-11-23T02:20:15.941Z,1.30
2023-11-23T02:22:43.018Z,1.20
2023-11-23T02:25:10.084Z,1.30
2023-11-23T02:27:37.253Z,1.30
2023-11-23T02:30:07.024Z,1.30
2023-11-23T02:32:34.639Z,1.20
2023-11-23T02:35:01.868Z,1.20
2023-11-23T02:37:29.294Z,1.30
2023-11-23T02:39:56.347Z,1.20
2023-11-23T02:42:23.467Z,1.27
2023-11-23T02:44:50.575Z,1.40
2023-11-23T02:47:17.772Z,1.30
2023-11-23T02:49:44.894Z,1.03
2023-11-23T02:52:13.038Z,1.10
2023-11-23T02:54:40.161Z,1.30
2023-11-23T02:57:07.282Z,1.20
2023-11-23T02:59:34.439Z,1.20
2023-11-23T03:02:01.708Z,1.30
2023-11-23T03:04:28.842Z,1.17
2023-11-23T03:06:55.924Z,1.10
2023-11-23T03:09:24.422Z,1.33
2023-11-23T03:11:51.620Z,1.20
2023-11-23T03:14:18.745Z,0.83
2023-11-23T03:16:46.711Z,1.13
2023-11-23T03:19:16.089Z,1.10
2023-11-23T03:21:43.297Z,1.37
2023-11-23T03:24:10.548Z,1.40
2023-11-23T03:26:37.764Z,1.20
2023-11-23T03:29:04.854Z,1.37
2023-11-23T03:31:31.915Z,1.43
2023-11-23T03:33:59.009Z,1.10
2023-11-23T03:36:26.079Z,1.17
2023-11-23T03:38:53.199Z,1.00
2023-11-23T03:41:20.300Z,1.00
2023-11-23T03:43:47.351Z,1.10
2023-11-23T03:46:14.535Z,0.70
2023-11-23T03:48:41.760Z,1.20
2023-11-23T03:51:12.680Z,0.90
2023-11-23T03:53:39.755Z,1.00
2023-11-23T03:56:07.118Z,1.00
2023-11-23T03:58:34.210Z,0.87
2023-11-23T04:01:01.277Z,0.90
2023-11-23T04:03:29.774Z,1.00
2023-11-23T04:05:56.866Z,1.00
2023-11-23T04:08:24.678Z,1.00
2023-11-23T04:10:52.404Z,1.00
2023-11-23T04:13:19.624Z,0.90
2023-11-23T04:15:46.767Z,1.10
2023-11-23T04:18:14.062Z,1.20
2023-11-23T04:20:41.429Z,1.10
2023-11-23T04:23:08.923Z,1.13
2023-11-23T04:25:35.996Z,1.20
2023-11-23T04:28:03.155Z,0.90
2023-11-23T04:30:30.222Z,1.10
2023-11-23T04:32:58.927Z,1.20
2023-11-23T04:35:27.439Z,1.10
2023-11-23T04:37:54.507Z,1.10
2023-11-23T04:40:21.744Z,1.23
2023-11-23T04:42:48.842Z,1.30
2023-11-23T04:45:16.246Z,1.30
2023-11-23T04:47:43.657Z,1.40
2023-11-23T04:50:11.170Z,1.40
2023-11-23T04:52:38.341Z,1.50
2023-11-23T04:55:05.874Z,1.33
2023-11-23T04:57:33.193Z,1.50
2023-11-23T05:00:00.408Z,1.60
2023-11-23T05:02:27.811Z,1.43
2023-11-23T05:04:55.481Z,1.60
2023-11-23T05:07:22.721Z,1.63
2023-11-23T05:09:49.785Z,1.57
2023-11-23T05:12:18.622Z,1.40
2023-11-23T05:14:45.770Z,1.40
2023-11-23T05:17:12.858Z,1.53
2023-11-23T05:19:43.008Z,1.70
2023-11-23T05:22:10.685Z,1.70
2023-11-23T05:24:37.870Z,1.70
2023-11-23T05:27:05.041Z,1.60
2023-11-23T05:29:32.164Z,1.80
2023-11-23T05:31:59.230Z,1.43
2023-11-23T05:34:26.308Z,1.60
2023-11-23T05:36:53.411Z,1.80
2023-11-23T05:39:20.572Z,2.07
2023-11-23T05:41:47.792Z,1.90
2023-11-23T05:44:14.883Z,1.77
2023-11-23T05:46:42.036Z,2.07
2023-11-23T05:49:09.133Z,2.13
2023-11-23T05:51:36.236Z,2.10
2023-11-23T05:54:03.335Z,2.40
2023-11-23T05:56:31.518Z,2.20
2023-11-23T05:58:58.774Z,2.13
2023-11-23T06:01:26.040Z,2.33
2023-11-23T06:03:53.266Z,2.20
2023-11-23T06:06:21.061Z,2.47
2023-11-23T06:08:48.935Z,2.40
2023-11-23T06:11:16.254Z,2.37
2023-11-23T06:13:49.882Z,2.53
2023-11-23T06:16:17.047Z,2.50
2023-11-23T06:18:44.786Z,2.30
2023-11-23T06:21:12.738Z,2.10
2023-11-23T06:23:39.804Z,2.50
2023-11-23T06:26:06.938Z,2.10
2023-11-23T06:28:34.273Z,2.20
2023-11-23T06:31:01.543Z,2.07
2023-11-23T06:33:28.794Z,2.20
2023-11-23T06:35:58.714Z,2.40
2023-11-23T06:38:25.827Z,2.40
2023-11-23T06:40:53.927Z,2.20
2023-11-23T06:43:21.008Z,2.00
2023-11-23T06:45:48.211Z,1.90
2023-11-23T06:48:15.432Z,2.10
2023-11-23T06:50:43.133Z,1.80
2023-11-23T06:53:10.192Z,1.70
2023-11-23T06:55:37.271Z,1.70
2023-11-23T06:58:04.368Z,1.47
2023-11-23T07:00:31.511Z,1.50
2023-11-23T07:02:59.173Z,1.50
2023-11-23T07:05:26.578Z,1.50
2023-11-23T07:07:54.072Z,1.60
2023-11-23T07:10:22.908Z,1.70
2023-11-23T07:12:50.897Z,1.90
2023-11-23T07:15:19.036Z,1.83
2023-11-23T07:17:47.958Z,1.77
2023-11-23T07:20:15.978Z,1.83
2023-11-23T07:22:43.395Z,2.07
2023-11-23T07:25:10.939Z,2.00
2023-11-23T07:27:38.601Z,2.40
2023-11-23T07:30:07.850Z,2.10
2023-11-23T07:32:35.429Z,2.20
2023-11-23T07:35:02.811Z,2.20
2023-11-23T07:37:30.260Z,2.27
2023-11-23T07:39:58.160Z,2.33
2023-11-23T07:42:26.612Z,2.27
2023-11-23T07:44:54.104Z,1.90
2023-11-23T07:47:23.115Z,2.23
2023-11-23T07:49:50.861Z,2.00
2023-11-23T07:52:17.947Z,1.80
2023-11-23T07:54:45.258Z,1.90
2023-11-23T07:57:12.532Z,1.93
2023-11-23T07:59:40.101Z,2.10
2023-11-23T08:02:07.596Z,2.00
2023-11-23T08:04:34.986Z,1.97
2023-11-23T08:07:02.153Z,2.10
2023-11-23T08:09:29.361Z,1.90
2023-11-23T08:11:58.163Z,2.00
2023-11-23T08:14:25.415Z,1.90
2023-11-23T08:16:52.716Z,1.80
2023-11-23T08:19:20.177Z,1.83
2023-11-23T08:21:49.975Z,2.17
2023-11-23T08:24:18.479Z,1.90
2023-11-23T08:26:45.872Z,1.77
2023-11-23T08:29:13.148Z,1.60
2023-11-23T08:31:42.231Z,1.60
2023-11-23T08:34:09.455Z,1.50
2023-11-23T08:36:37.241Z,1.90
2023-11-23T08:39:06.219Z,1.77
2023-11-23T08:41:33.515Z,1.50
2023-11-23T08:44:05.124Z,1.57
2023-11-23T08:46:34.602Z,1.80
2023-11-23T08:49:01.992Z,1.90
2023-11-23T08:51:29.906Z,1.67
2023-11-23T08:53:57.513Z,1.70
2023-11-23T08:56:24.633Z,1.57
2023-11-23T08:58:51.848Z,1.90
2023-11-23T09:01:19.031Z,1.80
2023-11-23T09:03:46.495Z,1.70
2023-11-23T09:06:14.871Z,1.70
2023-11-23T09:08:42.069Z,1.70
2023-11-23T09:11:09.133Z,1.57
2023-11-23T09:13:37.150Z,1.50
2023-11-23T09:16:04.297Z,1.60
2023-11-23T09:18:31.761Z,1.90
2023-11-23T09:21:01.072Z,1.83
2023-11-23T09:23:29.006Z,1.70
2023-11-23T09:25:56.138Z,1.90
2023-11-23T09:28:23.593Z,1.73
2023-11-23T09:30:50.653Z,1.50
2023-11-23T09:33:20.267Z,1.37
2023-11-23T09:35:47.949Z,1.60
2023-11-23T09:38:15.641Z,1.70
2023-11-23T09:40:42.745Z,1.60
2023-11-23T09:43:10.682Z,1.50
2023-11-23T09:45:37.904Z,1.40
2023-11-23T09:48:05.805Z,1.87
2023-11-23T09:50:36.963Z,1.70
2023-11-23T09:53:06.890Z,1.73
2023-11-23T09:55:33.971Z,1.70
2023-11-23T09:58:01.027Z,1.97
2023-11-23T10:00:28.350Z,1.73
2023-11-23T10:02:58.429Z,1.60
2023-11-23T10:05:25.881Z,1.70
2023-11-23T10:07:54.952Z,1.87
2023-11-23T10:10:22.565Z,1.43
2023-11-23T10:12:50.459Z,1.80
2023-11-23T10:15:17.812Z,1.70
2023-11-23T10:17:45.071Z,1.80
2023-11-23T10:20:14.126Z,1.93
2023-11-23T10:22:45.405Z,1.80
2023-11-23T10:25:32.694Z,1.90
2023-11-23T10:28:00.278Z,2.23
2023-11-23T10:30:27.803Z,2.00
2023-11-23T10:32:55.399Z,1.93
2023-11-23T10:35:22.619Z,1.73
2023-11-23T10:37:54.109Z,1.97
2023-11-23T10:40:22.356Z,1.80
2023-11-23T10:42:52.633Z,2.10
2023-11-23T10:45:20.403Z,2.00
2023-11-23T10:47:48.644Z,1.83
2023-11-23T10:50:16.908Z,1.77
2023-11-23T10:52:45.113Z,1.80
2023-11-23T10:55:12.490Z,1.80
2023-11-23T10:57:40.603Z,2.00
2023-11-23T11:00:09.926Z,1.97
2023-11-23T11:02:37.364Z,1.90
2023-11-23T11:05:04.551Z,1.87
2023-11-23T11:07:31.680Z,1.67
2023-11-23T11:10:01.709Z,2.13
2023-11-23T11:12:37.940Z,1.90
2023-11-23T11:15:07.485Z,1.90
2023-11-23T11:17:38.512Z,1.90
2023-11-23T11:20:15.096Z,2.00
2023-11-23T11:22:42.138Z,2.00
2023-11-23T11:25:09.298Z,1.80
2023-11-23T11:27:36.478Z,1.90
2023-11-23T11:30:04.575Z,1.87
2023-11-23T11:32:34.979Z,1.80
2023-11-23T11:35:04.639Z,1.90
2023-11-23T11:37:32.538Z,1.93
2023-11-23T11:40:00.672Z,1.57
2023-11-23T11:42:27.807Z,1.67
2023-11-23T11:44:55.501Z,1.87
2023-11-23T11:47:24.820Z,2.13
2023-11-23T11:49:53.326Z,1.67
2023-11-23T11:52:20.471Z,1.73
2023-11-23T11:54:48.509Z,1.50
2023-11-23T11:57:15.677Z,1.60
2023-11-23T11:59:45.109Z,1.80
2023-11-23T12:02:12.731Z,2.00
2023-11-23T12:04:40.585Z,2.00
2023-11-23T12:07:13.964Z,2.13
2023-11-23T12:09:46.275Z,2.03
2023-11-23T12:12:14.451Z,2.20
2023-11-23T12:14:41.741Z,2.00
2023-11-23T12:17:11.327Z,2.10
2023-11-23T12:19:38.600Z,2.20
2023-11-23T12:22:05.774Z,2.03
2023-11-23T12:24:33.284Z,1.87
2023-11-23T12:27:00.807Z,1.90
2023-11-23T12:29:30.321Z,1.90
2023-11-23T12:32:02.133Z,2.40
2023-11-23T12:34:30.617Z,2.10
2023-11-23T12:36:59.232Z,2.10
2023-11-23T12:39:26.694Z,2.07
2023-11-23T12:41:55.416Z,2.10
2023-11-23T12:44:22.924Z,2.03
2023-11-23T12:46:50.440Z,2.13
2023-11-23T12:49:18.642Z,2.03
2023-11-23T12:51:46.065Z,1.90
2023-11-23T12:54:15.590Z,2.00
2023-11-23T12:56:42.757Z,2.20
2023-11-23T12:59:09.841Z,1.53
2023-11-23T13:01:39.487Z,2.10
2023-11-23T13:04:08.841Z,1.80
2023-11-23T13:06:36.804Z,1.67
2023-11-23T13:09:05.104Z,1.80
2023-11-23T13:11:32.671Z,1.60
2023-11-23T13:13:59.982Z,2.20
2023-11-23T13:16:27.930Z,1.93
2023-11-23T13:19:10.990Z,1.80
2023-11-23T13:21:42.590Z,1.80
2023-11-23T13:24:13.081Z,1.83
2023-11-23T13:26:40.216Z,2.03
2023-11-23T13:29:07.463Z,1.90
2023-11-23T13:31:36.274Z,2.20
2023-11-23T13:34:04.815Z,1.80
2023-11-23T13:36:35.639Z,2.20
2023-11-23T13:39:03.585Z,1.63
2023-11-23T13:41:31.451Z,2.00
2023-11-23T13:43:58.596Z,1.90
2023-11-23T13:46:26.932Z,2.10
2023-11-23T13:48:54.399Z,2.17
2023-11-23T13:51:23.825Z,1.90
2023-11-23T13:53:51.679Z,1.90
2023-11-23T13:56:18.757Z,2.00
2023-11-23T13:58:45.832Z,1.80
2023-11-23T14:01:15.438Z,1.70
2023-11-23T14:03:43.679Z,1.60
2023-11-23T14:06:12.673Z,1.57
2023-11-23T14:08:39.852Z,1.83
2023-11-23T14:11:07.168Z,1.80
2023-11-23T14:13:34.394Z,1.50
2023-11-23T14:16:01.574Z,1.70
2023-11-23T14:18:30.023Z,1.40
2023-11-23T14:20:58.316Z,1.43
2023-11-23T14:23:25.400Z,1.67
2023-11-23T14:25:52.495Z,1.80
2023-11-23T14:28:21.537Z,1.63
2023-11-23T14:30:50.115Z,1.60
2023-11-23T14:33:22.130Z,1.50
2023-11-23T14:35:53.443Z,1.40
2023-11-23T14:38:21.129Z,1.40
2023-11-23T14:40:48.430Z,1.50
2023-11-23T14:43:19.951Z,1.50
2023-11-23T14:45:47.977Z,1.60
2023-11-23T14:48:15.838Z,1.60
2023-11-23T14:50:43.023Z,1.50
2023-11-23T14:53:11.449Z,1.40
2023-11-23T14:55:38.542Z,1.50
2023-11-23T14:58:05.625Z,1.70
2023-11-23T15:00:32.741Z,1.40
2023-11-23T15:02:59.929Z,1.30
2023-11-23T15:05:27.085Z,1.60
2023-11-23T15:07:54.177Z,1.70
2023-11-23T15:10:21.860Z,1.60
2023-11-23T15:12:52.519Z,1.60
2023-11-23T15:15:20.200Z,1.60
2023-11-23T15:17:51.382Z,1.60
2023-11-23T15:20:20.224Z,1.80
2023-11-23T15:22:47.651Z,1.60
2023-11-23T15:25:14.991Z,2.30
2023-11-23T15:27:43.834Z,1.80
2023-11-23T15:30:12.643Z,1.80
2023-11-23T15:32:40.815Z,2.10
2023-11-23T15:35:08.499Z,1.60
2023-11-23T15:37:37.193Z,1.90
2023-11-23T15:40:06.403Z,1.90
2023-11-23T15:42:33.724Z,2.07
2023-11-23T15:45:00.818Z,1.90
2023-11-23T15:47:27.924Z,1.57
2023-11-23T15:49:55.041Z,1.90
2023-11-23T15:52:22.735Z,1.77
2023-11-23T15:54:49.871Z,1.70
2023-11-23T15:57:17.179Z,1.67
2023-11-23T15:59:44.315Z,1.70
2023-11-23T16:02:12.385Z,1.63
2023-11-23T16:04:39.718Z,1.70
2023-11-23T16:07:06.997Z,1.67
2023-11-23T16:09:34.136Z,1.70
2023-11-23T16:12:01.375Z,1.77
2023-11-23T16:14:28.467Z,1.80
2023-11-23T16:16:57.579Z,1.73
2023-11-23T16:19:25.324Z,1.83
2023-11-23T16:21:52.972Z,1.70
2023-11-23T16:24:21.578Z,1.67
2023-11-23T16:26:48.803Z,1.80
2023-11-23T16:29:16.073Z,1.90
2023-11-23T16:31:45.924Z,1.60
2023-11-23T16:34:15.741Z,1.80
2023-11-23T16:36:43.194Z,2.03
2023-11-23T16:39:15.940Z,2.23
2023-11-23T16:41:44.611Z,2.20
2023-11-23T16:44:13.557Z,2.13
2023-11-23T16:46:42.581Z,2.27
2023-11-23T16:49:10.129Z,2.17
2023-11-23T16:51:38.407Z,2.20
2023-11-23T16:54:06.416Z,2.40
2023-11-23T16:56:33.493Z,2.20
2023-11-23T16:59:00.585Z,2.70
2023-11-23T17:01:28.479Z,2.27
2023-11-23T17:03:56.675Z,2.10
2023-11-23T17:06:24.072Z,2.00
2023-11-23T17:08:51.228Z,1.97
2023-11-23T17:11:18.971Z,1.90
2023-11-23T17:13:46.606Z,1.70
2023-11-23T17:16:13.689Z,1.93
2023-11-23T17:18:41.948Z,2.20
2023-11-23T17:21:09.114Z,1.83
2023-11-23T17:23:37.265Z,2.10
2023-11-23T17:26:04.869Z,1.73
2023-11-23T17:28:31.956Z,1.83
2023-11-23T17:31:00.896Z,1.70
2023-11-23T17:33:28.142Z,1.73
2023-11-23T17:35:55.358Z,1.80
2023-11-23T17:38:22.536Z,1.70
2023-11-23T17:40:49.639Z,1.90
2023-11-23T17:43:16.683Z,1.90
2023-11-23T17:45:45.886Z,1.80
2023-11-23T17:48:13.078Z,1.93
2023-11-23T17:50:41.441Z,1.70
2023-11-23T17:53:10.735Z,1.70
2023-11-23T17:55:37.836Z,1.80
2023-11-23T17:58:06.106Z,1.83
2023-11-23T18:00:33.269Z,2.00
2023-11-23T18:03:00.375Z,1.90
2023-11-23T18:05:28.921Z,2.10
2023-11-23T18:07:55.992Z,2.13
2023-11-23T18:10:23.168Z,2.10
2023-11-23T18:12:50.291Z,1.90
2023-11-23T18:15:18.067Z,2.20
2023-11-23T18:17:45.249Z,2.10
2023-11-23T18:20:14.120Z,2.40
2023-11-23T18:22:41.267Z,1.87
2023-11-23T18:25:08.930Z,2.10
2023-11-23T18:27:36.215Z,2.30
2023-11-23T18:30:03.818Z,2.50
2023-11-23T18:32:31.634Z,2.20
2023-11-23T18:34:58.763Z,2.00
2023-11-23T18:37:25.908Z,2.23
2023-11-23T18:39:52.983Z,2.27
2023-11-23T18:42:22.618Z,2.17
2023-11-23T18:44:49.814Z,2.20
2023-11-23T18:47:17.272Z,2.03
2023-11-23T18:49:44.963Z,2.20
2023-11-23T18:52:12.516Z,2.30
2023-11-23T18:54:39.716Z,2.50
2023-11-23T18:57:06.859Z,2.23
2023-11-23T18:59:35.428Z,1.90
2023-11-23T19:02:02.607Z,2.43
2023-11-23T19:04:29.970Z,2.47
2023-11-23T19:06:57.219Z,2.20
2023-11-23T19:09:28.068Z,2.20
2023-11-23T19:11:56.470Z,2.30
2023-11-23T19:14:24.426Z,2.20
2023-11-23T19:16:51.931Z,2.50
2023-11-23T19:19:19.212Z,2.37
2023-11-23T19:21:46.730Z,2.30
2023-11-23T19:24:14.480Z,2.60
2023-11-23T19:26:41.782Z,2.60
2023-11-23T19:29:10.988Z,2.47
2023-11-23T19:31:38.580Z,2.60
2023-11-23T19:34:06.853Z,2.57
2023-11-23T19:36:35.022Z,2.50
2023-11-23T19:39:02.321Z,2.53
2023-11-23T19:41:29.504Z,2.40
2023-11-23T19:43:56.730Z,2.50
2023-11-23T19:46:23.919Z,2.40
2023-11-23T19:48:51.382Z,2.20
2023-11-23T19:51:19.857Z,2.20
2023-11-23T19:53:46.974Z,2.00
2023-11-23T19:56:14.036Z,2.10
2023-11-23T19:58:41.396Z,2.00
2023-11-23T20:01:08.606Z,2.00
2023-11-23T20:03:35.903Z,1.80
2023-11-23T20:06:04.022Z,1.77
2023-11-23T20:08:32.318Z,1.90
2023-11-23T20:10:59.890Z,1.60
2023-11-23T20:13:26.993Z,1.70
2023-11-23T20:15:54.136Z,1.80
2023-11-23T20:18:22.711Z,1.60
2023-11-23T20:20:49.845Z,1.70
2023-11-23T20:23:16.901Z,1.30
2023-11-23T20:25:44.091Z,1.77
2023-11-23T20:28:11.270Z,1.70
2023-11-23T20:30:39.586Z,1.60
2023-11-23T20:33:06.782Z,1.50
2023-11-23T20:35:34.291Z,1.60
2023-11-23T20:38:01.397Z,1.40
2023-11-23T20:40:28.747Z,1.50
2023-11-23T20:42:55.854Z,1.50
2023-11-23T20:45:23.133Z,1.60
2023-11-23T20:47:50.320Z,1.63
2023-11-23T20:50:17.555Z,1.70
2023-11-23T20:52:44.648Z,1.67
2023-11-23T20:55:16.525Z,1.60
2023-11-23T20:57:44.039Z,1.63
2023-11-23T21:00:13.173Z,1.70
2023-11-23T21:02:40.746Z,1.80
2023-11-23T21:05:08.845Z,1.60
2023-11-23T21:07:36.295Z,1.60
2023-11-23T21:10:05.351Z,1.50
2023-11-23T21:12:32.559Z,1.50
2023-11-23T21:15:01.519Z,1.70
2023-11-23T21:17:29.077Z,1.50
2023-11-23T21:19:56.191Z,1.43
2023-11-23T21:22:23.267Z,1.70
2023-11-23T21:24:50.396Z,1.50
2023-11-23T21:27:17.536Z,1.30
2023-11-23T21:29:44.709Z,1.60
2023-11-23T21:32:15.213Z,1.30
2023-11-23T21:34:42.384Z,1.50
2023-11-23T21:37:09.447Z,1.30
2023-11-23T21:39:37.744Z,1.50
2023-11-23T21:42:06.864Z,1.63
2023-11-23T21:44:33.983Z,1.20
2023-11-23T21:47:01.090Z,1.43
2023-11-23T21:49:28.400Z,1.50
2023-11-23T21:51:55.578Z,1.47
2023-11-23T21:54:22.775Z,1.40
2023-11-23T21:56:50.479Z,1.30
2023-11-23T21:59:17.600Z,1.50
2023-11-23T22:01:44.792Z,1.57
2023-11-23T22:04:12.513Z,1.83
2023-11-23T22:06:39.715Z,2.00
2023-11-23T22:09:07.346Z,1.73
2023-11-23T22:11:34.430Z,1.90
2023-11-23T22:14:01.484Z,1.80
2023-11-23T22:16:28.648Z,1.60
2023-11-23T22:18:55.983Z,1.47
2023-11-23T22:21:23.189Z,1.50
2023-11-23T22:23:50.342Z,1.33
2023-11-23T22:26:17.597Z,1.53
2023-11-23T22:28:44.899Z,1.80
2023-11-23T22:31:13.149Z,2.03
2023-11-23T22:33:40.431Z,2.30
2023-11-23T22:36:07.858Z,2.30
2023-11-23T22:38:35.078Z,1.93
2023-11-23T22:41:03.415Z,2.00
2023-11-23T22:43:30.642Z,1.47
2023-11-23T22:45:58.090Z,1.80
2023-11-23T22:48:25.198Z,1.80
2023-11-23T22:50:52.318Z,1.97
2023-11-23T22:53:19.382Z,2.10
2023-11-23T22:55:46.518Z,1.80
2023-11-23T22:58:13.999Z,1.60
2023-11-23T23:00:41.214Z,2.20
2023-11-23T23:03:09.202Z,2.07
2023-11-23T23:05:36.311Z,2.73
2023-11-23T23:08:04.799Z,2.30
2023-11-23T23:10:32.627Z,2.17
2023-11-23T23:12:59.799Z,2.50
2023-11-23T23:15:27.056Z,2.37
2023-11-23T23:17:55.595Z,2.47
2023-11-23T23:20:22.778Z,2.50
2023-11-23T23:22:49.890Z,2.57
2023-11-23T23:25:17.004Z,2.30
2023-11-23T23:27:44.216Z,2.40
2023-11-23T23:30:12.379Z,2.57
2023-11-23T23:32:39.892Z,2.30
2023-11-23T23:35:07.250Z,2.40
2023-11-23T23:37:34.331Z,2.37
2023-11-23T23:40:01.636Z,2.20
2023-11-23T23:42:29.475Z,2.37
2023-11-23T23:44:57.419Z,2.00
2023-11-23T23:47:24.731Z,2.50
2023-11-23T23:49:51.928Z,2.50
2023-11-23T23:52:18.984Z,2.23
2023-11-23T23:54:46.473Z,2.43
2023-11-23T23:57:13.623Z,2.13
2023-11-23T23:59:41.389Z,2.40
